createdAt,value
2023-05-22T00:00:20.882Z,96954.00
2023-05-22T00:02:50.974Z,96956.97
2023-05-22T00:05:20.865Z,96952.84
2023-05-22T00:07:52.460Z,96954.22
2023-05-22T00:10:22.366Z,96944.84
2023-05-22T00:12:50.658Z,96941.34
2023-05-22T00:15:19.122Z,96944.59
2023-05-22T00:17:48.068Z,96938.38
2023-05-22T00:20:16.664Z,96936.75
2023-05-22T00:22:45.380Z,96942.66
2023-05-22T00:25:14.060Z,96939.72
2023-05-22T00:27:43.579Z,96945.69
2023-05-22T00:30:14.511Z,96933.44
2023-05-22T00:32:42.702Z,96932.63
2023-05-22T00:35:11.474Z,96936.47
2023-05-22T00:37:39.755Z,96936.31
2023-05-22T00:40:10.179Z,96933.03
2023-05-22T00:42:38.530Z,96934.13
2023-05-22T00:45:11.203Z,96927.66
2023-05-22T00:47:40.957Z,96937.94
2023-05-22T00:50:11.673Z,96933.03
2023-05-22T00:52:44.424Z,96939.63
2023-05-22T00:55:13.593Z,96935.66
2023-05-22T00:57:42.876Z,96941.31
2023-05-22T01:00:16.974Z,96930.06
2023-05-22T01:02:45.608Z,96929.75
2023-05-22T01:05:18.351Z,96934.31
2023-05-22T01:07:47.122Z,96934.31
2023-05-22T01:10:15.084Z,96938.84
2023-05-22T01:12:54.309Z,96933.63
2023-05-22T01:15:32.526Z,96938.16
2023-05-22T01:18:11.509Z,96935.84
2023-05-22T01:20:45.319Z,96940.75
2023-05-22T01:23:54.241Z,96943.50
2023-05-22T01:26:38.903Z,96945.03
2023-05-22T01:29:32.306Z,96956.13
2023-05-22T01:32:03.488Z,96945.69
2023-05-22T01:34:33.832Z,96953.53
2023-05-22T01:37:03.334Z,96954.25
2023-05-22T01:39:32.746Z,96957.25
2023-05-22T01:42:01.077Z,96956.28
2023-05-22T01:44:29.290Z,96951.50
2023-05-22T01:47:00.854Z,96956.16
2023-05-22T01:49:30.684Z,96953.13
2023-05-22T01:52:04.658Z,96954.25
2023-05-22T01:54:42.361Z,96953.25
2023-05-22T01:57:17.401Z,96959.88
2023-05-22T01:59:48.659Z,96953.94
2023-05-22T02:02:20.202Z,96951.47
2023-05-22T02:05:12.442Z,96947.50
2023-05-22T02:07:44.947Z,96948.16
2023-05-22T02:10:15.545Z,96950.25
2023-05-22T02:12:44.156Z,96952.16
2023-05-22T02:15:13.111Z,96947.91
2023-05-22T02:17:41.848Z,96950.78
2023-05-22T02:20:15.805Z,96942.97
2023-05-22T02:22:47.455Z,96938.44
2023-05-22T02:25:18.360Z,96941.03
2023-05-22T02:27:48.099Z,96939.63
2023-05-22T02:30:17.423Z,96945.81
2023-05-22T02:32:48.863Z,96935.63
2023-05-22T02:35:18.537Z,96937.84
2023-05-22T02:37:46.676Z,96937.16
2023-05-22T02:40:15.841Z,96934.66
2023-05-22T02:42:43.977Z,96933.59
2023-05-22T02:45:13.018Z,96934.03
2023-05-22T02:47:42.644Z,96931.13
2023-05-22T02:50:11.598Z,96931.16
2023-05-22T02:52:41.000Z,96926.88
2023-05-22T02:55:10.703Z,96933.00
2023-05-22T02:57:39.176Z,96931.06
2023-05-22T03:00:11.756Z,96928.19
2023-05-22T03:02:40.160Z,96926.41
2023-05-22T03:05:10.602Z,96926.03
2023-05-22T03:07:40.235Z,96932.19
2023-05-22T03:10:09.064Z,96927.25
2023-05-22T03:12:37.268Z,96925.75
2023-05-22T03:15:06.645Z,96925.00
2023-05-22T03:17:35.956Z,96929.94
2023-05-22T03:20:05.772Z,96928.44
2023-05-22T03:22:34.851Z,96927.63
2023-05-22T03:25:06.519Z,96922.16
2023-05-22T03:27:34.623Z,96922.59
2023-05-22T03:30:04.209Z,96924.50
2023-05-22T03:32:37.508Z,96919.84
2023-05-22T03:35:07.752Z,96925.06
2023-05-22T03:37:36.393Z,96924.63
2023-05-22T03:40:07.817Z,96917.53
2023-05-22T03:42:36.416Z,96915.91
2023-05-22T03:45:05.542Z,96922.66
2023-05-22T03:47:34.337Z,96920.44
2023-05-22T03:50:04.086Z,96919.22
2023-05-22T03:52:32.607Z,96924.03
2023-05-22T03:55:00.935Z,96917.44
2023-05-22T03:57:30.868Z,96909.75
2023-05-22T04:00:05.290Z,96910.28
2023-05-22T04:02:45.422Z,96906.69
2023-05-22T04:05:15.309Z,96904.78
2023-05-22T04:07:45.054Z,96897.38
2023-05-22T04:10:13.798Z,96891.06
2023-05-22T04:12:43.267Z,96893.09
2023-05-22T04:15:11.417Z,96894.19
2023-05-22T04:17:42.403Z,96895.84
2023-05-22T04:20:11.270Z,96891.53
2023-05-22T04:22:41.350Z,96894.22
2023-05-22T04:25:11.189Z,96897.75
2023-05-22T04:27:39.042Z,96897.56
2023-05-22T04:30:10.993Z,96897.25
2023-05-22T04:32:41.197Z,96903.38
2023-05-22T04:35:12.343Z,96898.63
2023-05-22T04:37:42.433Z,96898.28
2023-05-22T04:40:11.501Z,96892.75
2023-05-22T04:42:40.611Z,96897.84
2023-05-22T04:45:11.328Z,96900.94
2023-05-22T04:47:42.022Z,96895.16
2023-05-22T04:50:10.924Z,96892.59
2023-05-22T04:52:38.977Z,96904.16
2023-05-22T04:55:26.124Z,96898.34
2023-05-22T04:58:13.339Z,96893.53
2023-05-22T05:01:01.640Z,96894.47
2023-05-22T05:03:30.556Z,96891.28
2023-05-22T05:06:00.933Z,96893.38
2023-05-22T05:08:29.350Z,96897.31
2023-05-22T05:10:57.427Z,96894.75
2023-05-22T05:13:25.835Z,96895.00
2023-05-22T05:15:54.126Z,96894.41
2023-05-22T05:18:23.928Z,96896.66
2023-05-22T05:20:52.472Z,96893.22
2023-05-22T05:23:21.052Z,96897.13
2023-05-22T05:25:49.456Z,96895.88
2023-05-22T05:28:17.812Z,96895.53
2023-05-22T05:30:46.595Z,96890.88
2023-05-22T05:33:32.904Z,96897.72
2023-05-22T05:36:16.425Z,96900.06
2023-05-22T05:38:46.892Z,96892.22
2023-05-22T05:41:16.356Z,96897.13
2023-05-22T05:43:46.715Z,96890.38
2023-05-22T05:46:15.086Z,96895.63
2023-05-22T05:48:46.407Z,96890.69
2023-05-22T05:51:16.038Z,96894.09
2023-05-22T05:53:45.208Z,96892.25
2023-05-22T05:56:13.363Z,96896.84
2023-05-22T05:58:41.502Z,96883.16
2023-05-22T06:01:35.588Z,96886.16
2023-05-22T06:04:09.332Z,96889.63
2023-05-22T06:06:39.450Z,96886.44
2023-05-22T06:09:17.070Z,96891.34
2023-05-22T06:12:12.961Z,96880.16
2023-05-22T06:14:44.968Z,96872.19
2023-05-22T06:17:14.744Z,96874.94
2023-05-22T06:19:45.801Z,96869.88
2023-05-22T06:22:15.384Z,96874.94
2023-05-22T06:24:46.144Z,96870.41
2023-05-22T06:27:18.798Z,96870.69
2023-05-22T06:29:47.597Z,96867.69
2023-05-22T06:32:15.997Z,96865.78
2023-05-22T06:34:48.841Z,96857.28
2023-05-22T06:37:19.637Z,96860.13
2023-05-22T06:39:49.828Z,96859.97
2023-05-22T06:42:31.515Z,96867.03
2023-05-22T06:45:32.520Z,96862.44
2023-05-22T06:48:20.594Z,96866.22
2023-05-22T06:51:15.232Z,96862.06
2023-05-22T06:53:43.969Z,96857.38
2023-05-22T06:56:16.492Z,96856.81
2023-05-22T06:59:06.246Z,96842.75
2023-05-22T07:01:55.486Z,96857.28
2023-05-22T07:04:34.769Z,96852.13
2023-05-22T07:07:10.515Z,96846.13
2023-05-22T07:09:38.977Z,96847.38
2023-05-22T07:12:08.563Z,96846.53
2023-05-22T07:14:37.068Z,96851.16
2023-05-22T07:17:05.295Z,96847.66
2023-05-22T07:19:38.929Z,96853.56
2023-05-22T07:22:06.983Z,96844.38
2023-05-22T07:24:39.498Z,96843.56
2023-05-22T07:27:09.188Z,96839.31
2023-05-22T07:29:38.418Z,96840.88
2023-05-22T07:32:09.648Z,96841.97
2023-05-22T07:34:38.458Z,96837.28
2023-05-22T07:37:10.773Z,96840.56
2023-05-22T07:39:41.295Z,96836.56
2023-05-22T07:42:10.781Z,96834.41
2023-05-22T07:44:46.480Z,96836.19
2023-05-22T07:47:14.619Z,96834.81
2023-05-22T07:49:43.538Z,96829.59
2023-05-22T07:52:13.118Z,96829.69
2023-05-22T07:54:44.268Z,96827.47
2023-05-22T07:57:14.296Z,96825.84
2023-05-22T07:59:44.278Z,96825.00
2023-05-22T08:02:12.583Z,96823.38
2023-05-22T08:04:41.087Z,96827.91
2023-05-22T08:07:09.458Z,96824.06
2023-05-22T08:09:37.951Z,96825.16
2023-05-22T08:12:09.344Z,96828.78
2023-05-22T08:14:37.954Z,96831.66
2023-05-22T08:17:06.585Z,96823.88
2023-05-22T08:19:34.837Z,96820.03
2023-05-22T08:22:03.376Z,96824.78
2023-05-22T08:24:31.945Z,96828.13
2023-05-22T08:27:01.107Z,96825.13
2023-05-22T08:29:30.959Z,96827.97
2023-05-22T08:31:58.972Z,96827.66
2023-05-22T08:34:28.480Z,96821.66
2023-05-22T08:36:56.612Z,96824.22
2023-05-22T08:39:24.892Z,96819.97
2023-05-22T08:41:53.788Z,96818.22
2023-05-22T08:44:22.608Z,96811.81
2023-05-22T08:46:53.740Z,96822.09
2023-05-22T08:49:24.230Z,96823.34
2023-05-22T08:51:57.648Z,96823.97
2023-05-22T08:54:27.973Z,96818.91
2023-05-22T08:56:57.611Z,96814.66
2023-05-22T08:59:26.487Z,96811.94
2023-05-22T09:01:58.107Z,96815.50
2023-05-22T09:04:28.325Z,96814.22
2023-05-22T09:06:56.886Z,96817.47
2023-05-22T09:09:25.178Z,96811.38
2023-05-22T09:11:56.137Z,96817.72
2023-05-22T09:14:25.201Z,96810.25
2023-05-22T09:16:55.100Z,96817.34
2023-05-22T09:19:25.191Z,96811.84
2023-05-22T09:21:54.943Z,96810.50
2023-05-22T09:24:23.972Z,96806.97
2023-05-22T09:26:53.024Z,96805.72
2023-05-22T09:29:22.554Z,96811.38
2023-05-22T09:31:50.963Z,96815.53
2023-05-22T09:34:19.490Z,96811.03
2023-05-22T09:36:50.129Z,96805.94
2023-05-22T09:39:18.405Z,96803.97
2023-05-22T09:41:46.615Z,96812.94
2023-05-22T09:44:15.282Z,96813.34
2023-05-22T09:46:46.508Z,96809.47
2023-05-22T09:49:16.727Z,96805.16
2023-05-22T09:51:48.540Z,96809.09
2023-05-22T09:54:21.778Z,96804.69
2023-05-22T09:56:51.765Z,96804.88
2023-05-22T09:59:23.793Z,96797.94
2023-05-22T10:01:53.852Z,96798.78
2023-05-22T10:04:24.359Z,96798.59
2023-05-22T10:06:55.606Z,96794.84
2023-05-22T10:09:32.759Z,96796.94
2023-05-22T10:12:05.963Z,96793.25
2023-05-22T10:14:36.926Z,96800.22
2023-05-22T10:17:07.321Z,96800.47
2023-05-22T10:19:40.768Z,96794.53
2023-05-22T10:22:14.992Z,96791.94
2023-05-22T10:24:45.256Z,96792.59
2023-05-22T10:27:13.705Z,96791.63
2023-05-22T10:29:46.996Z,96791.06
2023-05-22T10:32:25.427Z,96791.31
2023-05-22T10:35:08.632Z,96795.94
2023-05-22T10:37:50.925Z,96782.53
2023-05-22T10:40:31.308Z,96783.81
2023-05-22T10:43:01.315Z,96782.19
2023-05-22T10:45:30.230Z,96773.63
2023-05-22T10:48:04.814Z,96781.91
2023-05-22T10:50:33.645Z,96777.75
2023-05-22T10:53:21.960Z,96779.91
2023-05-22T10:55:53.053Z,96785.19
2023-05-22T10:58:28.242Z,96779.19
2023-05-22T11:01:16.081Z,96777.50
2023-05-22T11:03:58.827Z,96766.66
2023-05-22T11:06:38.942Z,96775.34
2023-05-22T11:09:21.832Z,96765.69
2023-05-22T11:12:21.200Z,96764.09
2023-05-22T11:14:52.180Z,96768.31
2023-05-22T11:17:24.123Z,96764.09
2023-05-22T11:20:00.607Z,96766.59
2023-05-22T11:22:33.153Z,96775.09
2023-05-22T11:25:01.889Z,96767.41
2023-05-22T11:27:32.039Z,96766.25
2023-05-22T11:30:01.392Z,96759.97
2023-05-22T11:32:30.314Z,96759.16
2023-05-22T11:34:59.231Z,96757.13
2023-05-22T11:37:27.532Z,96763.72
2023-05-22T11:39:58.221Z,96757.88
2023-05-22T11:42:26.871Z,96752.19
2023-05-22T11:44:57.217Z,96756.75
2023-05-22T11:47:26.676Z,96752.69
2023-05-22T11:49:55.418Z,96744.91
2023-05-22T11:52:23.795Z,96753.25
2023-05-22T11:54:53.719Z,96749.94
2023-05-22T11:57:24.551Z,96753.09
2023-05-22T11:59:52.915Z,96756.47
2023-05-22T12:02:22.937Z,96754.53
2023-05-22T12:04:55.682Z,96755.28
2023-05-22T12:07:24.712Z,96746.22
2023-05-22T12:09:57.041Z,96751.25
2023-05-22T12:12:25.678Z,96744.63
2023-05-22T12:14:54.453Z,96747.06
2023-05-22T12:17:24.230Z,96748.97
2023-05-22T12:19:54.372Z,96746.53
2023-05-22T12:22:26.301Z,96748.09
2023-05-22T12:24:55.114Z,96747.16
2023-05-22T12:27:23.172Z,96743.59
2023-05-22T12:29:53.089Z,96737.75
2023-05-22T12:32:25.799Z,96737.09
2023-05-22T12:34:54.281Z,96744.25
2023-05-22T12:37:28.557Z,96744.78
2023-05-22T12:39:58.162Z,96728.41
2023-05-22T12:42:27.100Z,96726.63
2023-05-22T12:44:56.880Z,96727.56
2023-05-22T12:47:27.307Z,96733.03
2023-05-22T12:49:55.785Z,96727.84
2023-05-22T12:52:23.888Z,96723.09
2023-05-22T12:54:52.258Z,96722.00
2023-05-22T12:57:21.047Z,96713.47
2023-05-22T12:59:49.683Z,96720.09
2023-05-22T13:02:18.024Z,96724.22
2023-05-22T13:04:47.657Z,96716.72
2023-05-22T13:07:15.715Z,96706.13
2023-05-22T13:09:44.181Z,96715.78
2023-05-22T13:12:12.825Z,96706.84
2023-05-22T13:14:41.410Z,96700.59
2023-05-22T13:17:09.588Z,96710.44
2023-05-22T13:19:38.499Z,96699.56
2023-05-22T13:22:09.044Z,96704.03
2023-05-22T13:24:37.088Z,96697.75
2023-05-22T13:27:06.025Z,96697.72
2023-05-22T13:29:34.474Z,96690.97
2023-05-22T13:32:03.341Z,96695.50
2023-05-22T13:34:32.500Z,96695.91
2023-05-22T13:37:01.116Z,96698.06
2023-05-22T13:39:30.911Z,96697.22
2023-05-22T13:41:59.274Z,96691.38
2023-05-22T13:44:27.676Z,96691.03
2023-05-22T13:46:56.569Z,96690.53
2023-05-22T13:49:25.263Z,96686.66
2023-05-22T13:51:53.427Z,96688.06
2023-05-22T13:54:21.961Z,96684.38
2023-05-22T13:56:51.501Z,96680.53
2023-05-22T13:59:20.176Z,96681.19
2023-05-22T14:01:48.424Z,96674.69
2023-05-22T14:04:17.164Z,96680.00
2023-05-22T14:06:45.548Z,96677.50
2023-05-22T14:09:14.011Z,96674.69
2023-05-22T14:11:42.530Z,96669.34
2023-05-22T14:14:12.607Z,96662.06
2023-05-22T14:16:41.242Z,96677.50
2023-05-22T14:19:09.810Z,96665.78
2023-05-22T14:21:39.290Z,96667.06
2023-05-22T14:24:08.503Z,96666.72
2023-05-22T14:26:36.575Z,96661.28
2023-05-22T14:29:05.204Z,96660.69
2023-05-22T14:31:46.181Z,96664.50
2023-05-22T14:34:15.893Z,96651.94
2023-05-22T14:36:44.083Z,96656.72
2023-05-22T14:39:12.483Z,96655.72
2023-05-22T14:41:41.270Z,96659.28
2023-05-22T14:44:09.605Z,96660.44
2023-05-22T14:46:39.411Z,96654.69
2023-05-22T14:49:07.837Z,96660.28
2023-05-22T14:51:36.278Z,96652.16
2023-05-22T14:54:05.092Z,96654.84
2023-05-22T14:56:33.267Z,96659.25
2023-05-22T14:59:01.581Z,96653.59
2023-05-22T15:01:29.986Z,96653.84
2023-05-22T15:03:59.706Z,96654.81
2023-05-22T15:06:27.808Z,96648.59
2023-05-22T15:08:56.065Z,96650.09
2023-05-22T15:11:24.454Z,96650.16
2023-05-22T15:13:54.664Z,96651.72
2023-05-22T15:16:23.851Z,96645.22
2023-05-22T15:18:52.394Z,96639.16
2023-05-22T15:21:22.564Z,96644.22
2023-05-22T15:23:51.367Z,96641.88
2023-05-22T15:26:19.816Z,96633.16
2023-05-22T15:28:47.832Z,96636.94
2023-05-22T15:31:16.061Z,96640.38
2023-05-22T15:33:44.495Z,96634.72
2023-05-22T15:36:12.748Z,96637.13
2023-05-22T15:38:42.703Z,96627.31
2023-05-22T15:41:11.215Z,96621.91
2023-05-22T15:43:39.741Z,96623.47
2023-05-22T15:46:08.656Z,96627.16
2023-05-22T15:48:38.095Z,96620.47
2023-05-22T15:51:10.229Z,96614.97
2023-05-22T15:53:39.410Z,96615.09
2023-05-22T15:56:10.112Z,96620.34
2023-05-22T15:58:38.305Z,96606.91
2023-05-22T16:01:07.903Z,96615.31
2023-05-22T16:03:36.806Z,96604.81
2023-05-22T16:06:05.213Z,96612.53
2023-05-22T16:08:33.686Z,96612.69
2023-05-22T16:11:02.009Z,96613.50
2023-05-22T16:13:33.333Z,96612.63
2023-05-22T16:16:03.433Z,96611.41
2023-05-22T16:18:32.248Z,96611.56
2023-05-22T16:21:00.327Z,96606.28
2023-05-22T16:23:29.103Z,96607.28
2023-05-22T16:25:57.639Z,96608.66
2023-05-22T16:28:25.890Z,96608.66
2023-05-22T16:30:55.617Z,96599.28
2023-05-22T16:33:24.309Z,96604.75
2023-05-22T16:35:52.940Z,96599.53
2023-05-22T16:38:21.572Z,96594.53
2023-05-22T16:40:49.827Z,96600.50
2023-05-22T16:43:18.046Z,96594.84
2023-05-22T16:45:50.872Z,96590.41
2023-05-22T16:48:20.879Z,96598.78
2023-05-22T16:50:49.097Z,96589.44
2023-05-22T16:53:17.988Z,96581.44
2023-05-22T16:55:46.530Z,96591.38
2023-05-22T16:58:14.841Z,96585.22
2023-05-22T17:00:43.336Z,96588.13
2023-05-22T17:03:12.160Z,96584.69
2023-05-22T17:05:42.868Z,96589.88
2023-05-22T17:08:11.532Z,96593.34
2023-05-22T17:10:41.729Z,96595.19
2023-05-22T17:13:12.528Z,96593.88
2023-05-22T17:15:41.277Z,96590.69
2023-05-22T17:18:09.637Z,96595.44
2023-05-22T17:20:37.883Z,96589.34
2023-05-22T17:23:08.143Z,96590.47
2023-05-22T17:25:36.593Z,96588.50
2023-05-22T17:28:05.664Z,96587.22
2023-05-22T17:30:33.947Z,96596.69
2023-05-22T17:33:03.753Z,96585.31
2023-05-22T17:35:32.080Z,96593.75
2023-05-22T17:38:00.425Z,96586.91
2023-05-22T17:40:40.511Z,96591.59
2023-05-22T17:43:12.665Z,96587.41
2023-05-22T17:45:44.718Z,96587.47
2023-05-22T17:48:14.793Z,96584.28
2023-05-22T17:50:43.505Z,96577.53
2023-05-22T17:53:13.831Z,96586.00
2023-05-22T17:55:43.843Z,96586.28
2023-05-22T17:58:12.773Z,96587.91
2023-05-22T18:00:41.490Z,96590.97
2023-05-22T18:03:10.004Z,96590.56
2023-05-22T18:05:38.393Z,96593.78
2023-05-22T18:08:06.739Z,96592.72
2023-05-22T18:10:35.085Z,96590.47
2023-05-22T18:13:04.774Z,96585.56
2023-05-22T18:15:33.549Z,96591.66
2023-05-22T18:18:02.766Z,96587.53
2023-05-22T18:20:31.611Z,96588.53
2023-05-22T18:23:00.129Z,96591.75
2023-05-22T18:25:28.470Z,96585.03
2023-05-22T18:27:56.759Z,96581.72
2023-05-22T18:30:29.050Z,96580.13
2023-05-22T18:32:57.809Z,96581.22
2023-05-22T18:35:27.418Z,96578.75
2023-05-22T18:37:55.816Z,96581.72
2023-05-22T18:40:25.110Z,96581.28
2023-05-22T18:42:54.385Z,96584.91
2023-05-22T18:45:23.173Z,96580.75
2023-05-22T18:47:53.531Z,96576.38
2023-05-22T18:50:23.586Z,96574.66
2023-05-22T18:52:52.102Z,96569.84
2023-05-22T18:55:20.709Z,96579.28
2023-05-22T18:57:49.096Z,96574.28
2023-05-22T19:00:19.981Z,96576.25
2023-05-22T19:02:48.428Z,96577.34
2023-05-22T19:05:18.543Z,96574.63
2023-05-22T19:07:47.067Z,96571.50
2023-05-22T19:10:15.893Z,96575.19
2023-05-22T19:12:44.250Z,96577.75
2023-05-22T19:15:12.749Z,96575.66
2023-05-22T19:17:41.129Z,96580.22
2023-05-22T19:20:09.893Z,96574.25
2023-05-22T19:22:40.113Z,96581.06
2023-05-22T19:25:08.996Z,96586.88
2023-05-22T19:27:39.085Z,96585.88
2023-05-22T19:30:15.239Z,96585.69
2023-05-22T19:32:43.795Z,96586.69
2023-05-22T19:35:12.198Z,96582.66
2023-05-22T19:37:41.940Z,96595.38
2023-05-22T19:40:11.639Z,96588.91
2023-05-22T19:42:40.256Z,96584.63
2023-05-22T19:45:10.045Z,96588.41
2023-05-22T19:47:38.785Z,96581.72
2023-05-22T19:50:08.366Z,96584.28
2023-05-22T19:53:03.477Z,96581.81
2023-05-22T19:55:31.934Z,96589.59
2023-05-22T19:58:00.220Z,96586.31
2023-05-22T20:00:29.415Z,96588.78
2023-05-22T20:02:57.873Z,96583.13
2023-05-22T20:05:26.181Z,96584.09
2023-05-22T20:07:54.636Z,96588.75
2023-05-22T20:10:24.440Z,96596.00
2023-05-22T20:12:54.369Z,96593.03
2023-05-22T20:15:24.894Z,96593.22
2023-05-22T20:17:54.687Z,96592.22
2023-05-22T20:20:24.291Z,96589.00
2023-05-22T20:22:53.891Z,96589.72
2023-05-22T20:25:22.400Z,96587.16
2023-05-22T20:27:52.105Z,96590.16
2023-05-22T20:30:20.969Z,96596.72
2023-05-22T20:32:49.691Z,96596.88
2023-05-22T20:35:19.152Z,96601.66
2023-05-22T20:37:47.706Z,96596.13
2023-05-22T20:40:17.806Z,96595.59
2023-05-22T20:42:47.604Z,96593.13
2023-05-22T20:45:17.677Z,96590.03
2023-05-22T20:47:45.876Z,96599.72
2023-05-22T20:50:15.828Z,96595.44
2023-05-22T20:52:46.240Z,96598.03
2023-05-22T20:55:14.495Z,96592.84
2023-05-22T20:57:42.674Z,96588.06
2023-05-22T21:00:14.223Z,96589.09
2023-05-22T21:02:43.854Z,96594.81
2023-05-22T21:05:12.209Z,96596.94
2023-05-22T21:07:40.444Z,96592.53
2023-05-22T21:10:09.820Z,96589.09
2023-05-22T21:12:39.124Z,96591.88
2023-05-22T21:15:08.704Z,96594.63
2023-05-22T21:17:37.193Z,96587.94
2023-05-22T21:20:09.760Z,96591.38
2023-05-22T21:22:37.828Z,96594.66
2023-05-22T21:25:07.674Z,96591.84
2023-05-22T21:27:35.793Z,96588.22
2023-05-22T21:30:04.316Z,96582.81
2023-05-22T21:32:32.875Z,96590.97
2023-05-22T21:35:01.065Z,96584.47
2023-05-22T21:37:30.894Z,96579.69
2023-05-22T21:39:59.308Z,96587.75
2023-05-22T21:42:34.811Z,96588.56
2023-05-22T21:45:14.013Z,96580.53
2023-05-22T21:47:42.246Z,96581.00
2023-05-22T21:50:12.326Z,96583.59
2023-05-22T21:52:41.795Z,96580.81
2023-05-22T21:55:10.518Z,96580.47
2023-05-22T21:57:38.542Z,96577.06
2023-05-22T22:00:08.743Z,96574.75
2023-05-22T22:02:36.790Z,96565.88
2023-05-22T22:05:06.052Z,96565.09
2023-05-22T22:07:34.304Z,96567.50
2023-05-22T22:10:07.446Z,96566.66
2023-05-22T22:12:35.572Z,96569.91
2023-05-22T22:15:03.480Z,96560.91
2023-05-22T22:17:34.918Z,96557.63
2023-05-22T22:20:03.183Z,96551.78
2023-05-22T22:22:31.479Z,96553.59
2023-05-22T22:24:59.728Z,96555.09
2023-05-22T22:27:29.217Z,96548.00
2023-05-22T22:29:57.195Z,96546.16
2023-05-22T22:32:50.103Z,96549.94
2023-05-22T22:35:18.355Z,96548.56
2023-05-22T22:37:46.838Z,96548.53
2023-05-22T22:40:15.106Z,96542.91
2023-05-22T22:42:44.558Z,96540.31
2023-05-22T22:45:14.914Z,96543.78
2023-05-22T22:47:43.643Z,96540.41
2023-05-22T22:50:12.908Z,96537.09
2023-05-22T22:52:45.381Z,96535.00
2023-05-22T22:55:14.183Z,96539.09
2023-05-22T22:57:43.402Z,96542.84
2023-05-22T23:00:16.155Z,96540.91
2023-05-22T23:02:45.017Z,96544.22
2023-05-22T23:05:13.738Z,96540.47
2023-05-22T23:07:41.859Z,96537.84
2023-05-22T23:10:10.786Z,96538.81
2023-05-22T23:12:39.127Z,96536.34
2023-05-22T23:15:09.249Z,96527.50
2023-05-22T23:17:39.247Z,96530.31
2023-05-22T23:20:10.264Z,96527.50
2023-05-22T23:22:41.992Z,96529.16
2023-05-22T23:25:11.168Z,96517.03
2023-05-22T23:27:39.585Z,96517.53
2023-05-22T23:30:09.554Z,96514.91
2023-05-22T23:32:39.278Z,96516.38
2023-05-22T23:35:09.613Z,96514.25
2023-05-22T23:37:37.764Z,96509.66
2023-05-22T23:40:07.761Z,96514.09
2023-05-22T23:42:36.469Z,96513.09
2023-05-22T23:45:05.504Z,96511.13
2023-05-22T23:47:33.981Z,96509.34
2023-05-22T23:50:03.775Z,96510.47
2023-05-22T23:52:32.153Z,96499.66
2023-05-22T23:55:00.916Z,96491.13
2023-05-22T23:57:29.135Z,96501.09
2023-05-22T23:59:57.461Z,96496.47
